createdAt,value
2023-03-25T00:00:15.581Z,9.21
2023-03-25T00:02:47.768Z,9.10
2023-03-25T00:05:15.600Z,8.95
2023-03-25T00:07:43.604Z,8.91
2023-03-25T00:10:11.787Z,9.07
2023-03-25T00:12:38.966Z,8.98
2023-03-25T00:15:07.739Z,8.99
2023-03-25T00:17:37.193Z,9.02
2023-03-25T00:20:10.062Z,9.22
2023-03-25T00:22:41.674Z,9.24
2023-03-25T00:25:16.666Z,9.16
2023-03-25T00:27:44.645Z,9.00
2023-03-25T00:30:11.969Z,8.90
2023-03-25T00:32:39.933Z,8.96
2023-03-25T00:35:08.663Z,9.03
2023-03-25T00:37:35.378Z,8.96
2023-03-25T00:40:03.836Z,8.98
2023-03-25T00:42:30.590Z,9.05
2023-03-25T00:44:57.406Z,8.98
2023-03-25T00:47:24.625Z,9.02
2023-03-25T00:49:52.082Z,9.04
2023-03-25T00:52:19.713Z,9.08
2023-03-25T00:54:47.171Z,9.12
2023-03-25T00:57:14.610Z,9.12
2023-03-25T00:59:41.449Z,9.21
2023-03-25T01:02:09.477Z,9.24
2023-03-25T01:04:39.445Z,9.19
2023-03-25T01:07:08.119Z,9.22
2023-03-25T01:09:37.560Z,9.21
2023-03-25T01:12:04.820Z,9.00
2023-03-25T01:14:31.543Z,9.02
2023-03-25T01:16:59.238Z,9.08
2023-03-25T01:19:27.544Z,8.90
2023-03-25T01:21:54.396Z,8.87
2023-03-25T01:24:21.210Z,8.79
2023-03-25T01:26:47.924Z,8.62
2023-03-25T01:29:17.082Z,8.70
2023-03-25T01:31:44.144Z,8.71
2023-03-25T01:34:11.352Z,8.72
2023-03-25T01:36:40.233Z,8.78
2023-03-25T01:39:08.225Z,8.63
2023-03-25T01:41:46.788Z,8.63
2023-03-25T01:44:22.407Z,8.69
2023-03-25T01:46:53.864Z,8.70
2023-03-25T01:49:39.285Z,8.87
2023-03-25T01:52:09.899Z,8.79
2023-03-25T01:54:39.038Z,8.76
2023-03-25T01:57:06.979Z,8.86
2023-03-25T01:59:34.055Z,8.89
2023-03-25T02:04:59.393Z,8.89
2023-03-25T02:07:31.345Z,8.75
2023-03-25T02:10:04.971Z,8.73
2023-03-25T02:12:32.036Z,8.66
2023-03-25T02:15:00.880Z,8.72
2023-03-25T02:17:44.065Z,8.67
2023-03-25T02:20:29.028Z,8.79
2023-03-25T02:23:11.247Z,8.77
2023-03-25T02:25:59.948Z,8.84
2023-03-25T02:28:40.047Z,8.80
2023-03-25T02:31:16.110Z,8.79
2023-03-25T02:34:01.755Z,8.89
2023-03-25T02:36:41.563Z,8.91
2023-03-25T02:39:37.182Z,9.00
2023-03-25T02:42:21.135Z,8.94
2023-03-25T02:44:54.565Z,9.03
2023-03-25T02:47:23.726Z,8.90
2023-03-25T02:50:01.188Z,8.79
2023-03-25T02:52:30.877Z,8.15
2023-03-25T02:55:02.391Z,7.14
2023-03-25T02:57:32.646Z,6.85
2023-03-25T03:00:00.008Z,6.81
2023-03-25T03:02:32.691Z,6.79
2023-03-25T03:05:00.617Z,6.79
2023-03-25T03:07:30.872Z,6.91
2023-03-25T03:10:13.533Z,6.96
2023-03-25T03:12:42.811Z,6.90
2023-03-25T03:15:21.189Z,6.94
2023-03-25T03:18:38.306Z,6.95
2023-03-25T03:21:40.657Z,7.21
2023-03-25T03:24:23.339Z,7.38
2023-03-25T03:26:55.956Z,7.46
2023-03-25T03:29:49.034Z,7.48
2023-03-25T03:32:28.838Z,7.55
2023-03-25T03:34:59.756Z,7.57
2023-03-25T03:37:32.822Z,7.61
2023-03-25T03:39:59.733Z,7.61
2023-03-25T03:42:33.077Z,7.51
2023-03-25T03:45:05.986Z,7.51
2023-03-25T03:47:37.159Z,7.45
2023-03-25T03:50:13.505Z,7.49
2023-03-25T03:52:43.750Z,7.43
2023-03-25T03:55:19.348Z,7.37
2023-03-25T03:57:50.992Z,7.46
2023-03-25T04:00:34.070Z,7.45
2023-03-25T04:03:15.760Z,7.42
2023-03-25T04:05:46.294Z,7.44
2023-03-25T04:08:26.697Z,7.44
2023-03-25T04:10:59.452Z,7.26
2023-03-25T04:13:29.486Z,7.30
2023-03-25T04:16:00.330Z,7.35
2023-03-25T04:18:28.720Z,7.42
2023-03-25T04:20:56.277Z,7.30
2023-03-25T04:23:23.006Z,7.31
2023-03-25T04:25:55.795Z,7.29
2023-03-25T04:28:24.367Z,7.40
2023-03-25T04:30:55.970Z,7.42
2023-03-25T04:33:25.622Z,7.47
2023-03-25T04:35:53.304Z,7.37
2023-03-25T04:38:20.589Z,7.35
2023-03-25T04:40:47.842Z,7.42
2023-03-25T04:43:16.031Z,7.33
2023-03-25T04:45:49.597Z,7.31
2023-03-25T04:48:24.125Z,7.28
2023-03-25T04:50:56.073Z,7.32
2023-03-25T04:53:22.970Z,7.30
2023-03-25T04:55:56.057Z,7.34
2023-03-25T04:58:23.856Z,7.32
2023-03-25T05:00:52.864Z,7.34
2023-03-25T05:03:24.966Z,7.29
2023-03-25T05:06:02.147Z,7.36
2023-03-25T05:08:34.521Z,7.32
2023-03-25T05:11:04.474Z,7.25
2023-03-25T05:13:32.255Z,7.28
2023-03-25T05:16:08.709Z,7.35
2023-03-25T05:18:36.900Z,7.44
2023-03-25T05:21:05.367Z,7.44
2023-03-25T05:23:32.526Z,7.52
2023-03-25T05:25:59.666Z,7.51
2023-03-25T05:28:26.783Z,7.55
2023-03-25T05:30:55.309Z,7.42
2023-03-25T05:33:22.626Z,7.64
2023-03-25T05:35:49.776Z,7.72
2023-03-25T05:38:18.689Z,7.81
2023-03-25T05:40:47.103Z,7.79
2023-03-25T05:43:17.475Z,7.77
2023-03-25T05:45:45.672Z,7.77
2023-03-25T05:48:12.612Z,7.81
2023-03-25T05:50:43.025Z,7.81
2023-03-25T05:53:15.719Z,7.85
2023-03-25T05:55:42.574Z,7.80
2023-03-25T05:58:09.374Z,7.81
2023-03-25T06:00:37.354Z,7.80
2023-03-25T06:03:07.349Z,7.81
2023-03-25T06:05:34.315Z,7.80
2023-03-25T06:08:02.115Z,7.88
2023-03-25T06:10:29.834Z,7.97
2023-03-25T06:12:56.743Z,7.98
2023-03-25T06:15:29.528Z,7.94
2023-03-25T06:17:57.233Z,7.96
2023-03-25T06:20:24.193Z,8.02
2023-03-25T06:22:51.339Z,8.08
2023-03-25T06:25:21.039Z,8.16
2023-03-25T06:27:49.494Z,8.22
2023-03-25T06:30:21.795Z,8.21
2023-03-25T06:32:52.711Z,8.32
2023-03-25T06:35:20.766Z,8.34
2023-03-25T06:37:49.236Z,8.45
2023-03-25T06:40:25.240Z,8.37
2023-03-25T06:42:52.363Z,8.40
2023-03-25T06:45:37.447Z,8.43
2023-03-25T06:48:09.791Z,8.32
2023-03-25T06:50:36.520Z,8.37
2023-03-25T06:53:03.856Z,8.42
2023-03-25T06:55:30.731Z,8.53
2023-03-25T06:58:35.159Z,8.57
2023-03-25T07:01:07.569Z,8.60
2023-03-25T07:03:37.286Z,8.54
2023-03-25T07:06:07.860Z,8.52
2023-03-25T07:08:34.773Z,8.50
2023-03-25T07:11:06.376Z,8.54
2023-03-25T07:13:33.414Z,8.61
2023-03-25T07:16:00.639Z,8.75
2023-03-25T07:18:27.636Z,8.86
2023-03-25T07:20:54.347Z,9.07
2023-03-25T07:23:21.115Z,9.21
2023-03-25T07:25:48.067Z,9.10
2023-03-25T07:28:14.962Z,9.31
2023-03-25T07:30:46.211Z,9.07
2023-03-25T07:33:12.886Z,9.11
2023-03-25T07:35:39.625Z,8.93
2023-03-25T07:38:06.470Z,8.82
2023-03-25T07:40:33.281Z,8.71
2023-03-25T07:42:59.951Z,8.83
2023-03-25T07:45:44.566Z,8.99
2023-03-25T07:48:14.933Z,9.20
2023-03-25T07:50:42.531Z,9.36
2023-03-25T07:53:10.188Z,9.36
2023-03-25T07:55:37.564Z,9.50
2023-03-25T07:58:04.229Z,9.61
2023-03-25T08:00:31.403Z,9.79
2023-03-25T08:02:58.169Z,10.09
2023-03-25T08:05:25.343Z,10.29
2023-03-25T08:07:52.952Z,10.64
2023-03-25T08:10:20.164Z,10.79
2023-03-25T08:12:46.935Z,10.57
2023-03-25T08:15:14.158Z,10.76
2023-03-25T08:17:41.131Z,10.54
2023-03-25T08:20:09.129Z,10.74
2023-03-25T08:22:36.428Z,10.73
2023-03-25T08:25:03.817Z,10.89
2023-03-25T08:27:31.016Z,10.97
2023-03-25T08:30:00.033Z,11.14
2023-03-25T08:32:28.155Z,11.16
2023-03-25T08:34:55.305Z,10.94
2023-03-25T08:37:24.087Z,10.82
2023-03-25T08:39:50.851Z,10.76
2023-03-25T08:42:17.978Z,10.89
2023-03-25T08:44:44.676Z,10.90
2023-03-25T08:47:11.688Z,10.80
2023-03-25T08:49:38.492Z,10.62
2023-03-25T08:52:08.795Z,10.44
2023-03-25T08:54:36.133Z,10.41
2023-03-25T08:57:02.942Z,10.13
2023-03-25T08:59:29.833Z,9.87
2023-03-25T09:01:57.789Z,9.87
2023-03-25T09:04:26.435Z,9.68
2023-03-25T09:07:11.946Z,9.62
2023-03-25T09:09:42.767Z,9.58
2023-03-25T09:12:09.884Z,9.54
2023-03-25T09:14:37.090Z,9.30
2023-03-25T09:17:06.162Z,9.09
2023-03-25T09:19:34.791Z,9.30
2023-03-25T09:22:01.797Z,9.53
2023-03-25T09:24:28.760Z,9.87
2023-03-25T09:26:55.506Z,9.89
2023-03-25T09:29:22.434Z,9.91
2023-03-25T09:31:49.133Z,9.75
2023-03-25T09:34:16.246Z,9.93
2023-03-25T09:36:43.283Z,9.92
2023-03-25T09:39:09.991Z,9.87
2023-03-25T09:42:07.584Z,9.83
2023-03-25T09:45:03.037Z,10.17
2023-03-25T09:47:37.110Z,10.40
2023-03-25T09:50:07.404Z,10.92
2023-03-25T09:53:01.831Z,11.37
2023-03-25T09:55:30.950Z,11.31
2023-03-25T09:58:36.155Z,11.15
2023-03-25T10:02:00.173Z,10.77
2023-03-25T10:04:29.158Z,10.60
2023-03-25T10:07:34.391Z,10.49
2023-03-25T10:10:29.749Z,10.45
2023-03-25T10:13:24.466Z,10.79
2023-03-25T10:16:00.274Z,11.38
2023-03-25T10:18:47.398Z,11.56
2023-03-25T10:21:18.125Z,11.81
2023-03-25T10:24:15.799Z,12.03
2023-03-25T10:26:48.617Z,12.04
2023-03-25T10:29:21.957Z,12.30
2023-03-25T10:31:53.203Z,12.46
2023-03-25T10:34:24.464Z,12.37
2023-03-25T10:36:58.227Z,12.21
2023-03-25T10:39:34.113Z,12.36
2023-03-25T10:42:21.962Z,11.99
2023-03-25T10:44:48.813Z,11.42
2023-03-25T10:47:20.575Z,11.34
2023-03-25T10:49:48.418Z,11.17
2023-03-25T10:52:16.736Z,11.20
2023-03-25T10:54:50.760Z,11.06
2023-03-25T10:57:22.442Z,10.94
2023-03-25T10:59:53.255Z,11.09
2023-03-25T11:02:22.936Z,11.03
2023-03-25T11:04:51.687Z,11.46
2023-03-25T11:07:36.880Z,11.67
2023-03-25T11:10:17.617Z,11.73
2023-03-25T11:12:48.588Z,11.70
2023-03-25T11:15:26.313Z,12.29
2023-03-25T11:18:11.914Z,12.63
2023-03-25T11:20:41.431Z,13.80
2023-03-25T11:23:26.110Z,14.58
2023-03-25T11:25:54.876Z,13.96
2023-03-25T11:28:36.066Z,12.53
2023-03-25T11:31:12.739Z,12.04
2023-03-25T11:33:41.364Z,12.50
2023-03-25T11:36:41.561Z,12.95
2023-03-25T11:39:18.524Z,13.67
2023-03-25T11:41:46.000Z,14.25
2023-03-25T11:44:41.947Z,14.34
2023-03-25T11:47:10.116Z,14.86
2023-03-25T11:49:39.020Z,14.78
2023-03-25T11:52:21.214Z,14.95
2023-03-25T11:54:48.318Z,14.54
2023-03-25T11:57:18.948Z,14.16
2023-03-25T11:59:47.723Z,14.32
2023-03-25T12:02:17.472Z,13.58
2023-03-25T12:05:04.448Z,13.27
2023-03-25T12:07:41.738Z,12.96
2023-03-25T12:10:16.966Z,13.11
2023-03-25T12:12:52.198Z,13.39
2023-03-25T12:15:41.854Z,13.03
2023-03-25T12:18:42.074Z,13.45
2023-03-25T12:21:38.469Z,14.14
2023-03-25T12:24:05.494Z,13.94
2023-03-25T12:26:53.724Z,13.93
2023-03-25T12:29:30.018Z,13.94
2023-03-25T12:32:04.163Z,13.60
2023-03-25T12:34:39.500Z,13.16
2023-03-25T12:37:33.209Z,13.42
2023-03-25T12:40:12.039Z,13.41
2023-03-25T12:42:43.842Z,13.15
2023-03-25T12:45:45.428Z,12.50
2023-03-25T12:48:21.271Z,12.44
2023-03-25T12:51:07.861Z,11.82
2023-03-25T12:53:57.020Z,11.23
2023-03-25T12:56:44.855Z,10.36
2023-03-25T12:59:27.953Z,10.79
2023-03-25T13:02:27.802Z,11.24
2023-03-25T13:05:27.658Z,11.80
2023-03-25T13:07:58.513Z,12.06
2023-03-25T13:10:29.124Z,12.19
2023-03-25T13:12:58.476Z,12.24
2023-03-25T13:16:09.945Z,12.43
2023-03-25T13:18:48.509Z,12.23
2023-03-25T13:21:24.582Z,12.42
2023-03-25T13:24:06.658Z,12.61
2023-03-25T13:26:35.682Z,12.82
2023-03-25T13:29:05.797Z,12.94
2023-03-25T13:31:37.580Z,12.71
2023-03-25T13:34:39.936Z,12.07
2023-03-25T13:37:20.084Z,11.72
2023-03-25T13:40:16.591Z,11.57
2023-03-25T13:42:49.201Z,11.50
2023-03-25T13:45:18.345Z,11.56
2023-03-25T13:48:01.216Z,12.07
2023-03-25T13:50:29.513Z,12.46
2023-03-25T13:53:02.234Z,12.64
2023-03-25T13:55:35.698Z,13.06
2023-03-25T13:58:36.514Z,13.20
2023-03-25T14:01:28.286Z,13.04
2023-03-25T14:04:17.483Z,13.15
2023-03-25T14:07:10.225Z,13.33
2023-03-25T14:10:03.536Z,13.05
2023-03-25T14:12:35.157Z,12.99
2023-03-25T14:15:32.068Z,12.47
2023-03-25T14:18:00.334Z,11.74
2023-03-25T14:20:35.734Z,10.88
2023-03-25T14:23:05.138Z,10.26
2023-03-25T14:25:38.933Z,10.05
2023-03-25T14:28:08.022Z,10.01
2023-03-25T14:30:35.212Z,9.90
2023-03-25T14:33:05.800Z,10.24
2023-03-25T14:35:38.410Z,10.47
2023-03-25T14:38:08.015Z,10.66
2023-03-25T14:43:24.170Z,11.02
2023-03-25T14:46:03.883Z,10.96
2023-03-25T14:48:34.680Z,11.37
2023-03-25T14:51:23.396Z,11.46
2023-03-25T14:54:18.805Z,11.63
2023-03-25T14:57:07.007Z,11.82
2023-03-25T14:59:36.355Z,11.74
2023-03-25T15:02:15.437Z,11.95
2023-03-25T15:04:42.529Z,12.01
2023-03-25T15:07:13.087Z,12.13
2023-03-25T15:10:06.336Z,12.18
2023-03-25T15:12:38.493Z,12.26
2023-03-25T15:15:27.042Z,12.16
2023-03-25T15:17:53.909Z,12.23
2023-03-25T15:20:23.586Z,12.20
2023-03-25T15:23:22.216Z,12.41
2023-03-25T15:25:54.887Z,12.51
2023-03-25T15:28:43.514Z,12.41
2023-03-25T15:31:20.470Z,12.42
2023-03-25T15:34:11.684Z,12.66
2023-03-25T15:37:01.242Z,12.52
2023-03-25T15:40:00.843Z,12.52
2023-03-25T15:42:51.894Z,12.38
2023-03-25T15:45:52.861Z,12.65
2023-03-25T15:48:32.866Z,12.49
2023-03-25T15:51:11.693Z,12.29
2023-03-25T15:53:42.859Z,12.47
2023-03-25T15:56:19.488Z,12.48
2023-03-25T15:58:52.943Z,12.40
2023-03-25T16:01:31.598Z,12.38
2023-03-25T16:04:18.816Z,12.53
2023-03-25T16:06:46.769Z,12.47
2023-03-25T16:09:19.549Z,12.26
2023-03-25T16:11:46.912Z,12.41
2023-03-25T16:14:19.511Z,12.38
2023-03-25T16:16:54.638Z,12.37
2023-03-25T16:19:31.729Z,12.33
2023-03-25T16:22:02.005Z,12.24
2023-03-25T16:24:34.311Z,12.33
2023-03-25T16:27:11.793Z,12.29
2023-03-25T16:29:42.121Z,12.24
2023-03-25T16:32:19.126Z,12.05
2023-03-25T16:34:46.748Z,12.15
2023-03-25T16:37:14.147Z,12.20
2023-03-25T16:39:41.095Z,12.10
2023-03-25T16:42:19.591Z,11.88
2023-03-25T16:44:48.101Z,11.84
2023-03-25T16:47:16.077Z,11.72
2023-03-25T16:49:46.827Z,11.69
2023-03-25T16:52:16.950Z,11.78
2023-03-25T16:54:52.845Z,11.83
2023-03-25T16:57:30.123Z,11.78
2023-03-25T16:59:57.008Z,11.75
2023-03-25T17:02:42.104Z,11.67
2023-03-25T17:05:21.290Z,11.25
2023-03-25T17:07:51.147Z,11.19
2023-03-25T17:10:26.766Z,11.21
2023-03-25T17:12:59.816Z,11.06
2023-03-25T17:15:27.012Z,11.06
2023-03-25T17:18:01.116Z,11.07
2023-03-25T17:20:34.924Z,11.10
2023-03-25T17:23:19.294Z,11.08
2023-03-25T17:26:08.543Z,11.07
2023-03-25T17:28:45.254Z,11.15
2023-03-25T17:31:25.516Z,11.36
2023-03-25T17:33:54.406Z,11.23
2023-03-25T17:36:24.675Z,11.36
2023-03-25T17:38:54.227Z,11.25
2023-03-25T17:41:21.985Z,11.31
2023-03-25T17:43:54.369Z,11.36
2023-03-25T17:46:23.392Z,11.30
2023-03-25T17:48:50.997Z,10.77
2023-03-25T17:51:18.838Z,10.92
2023-03-25T17:53:45.621Z,10.90
2023-03-25T17:56:13.566Z,10.83
2023-03-25T17:58:40.345Z,10.94
2023-03-25T18:01:07.440Z,10.89
2023-03-25T18:03:35.402Z,10.95
2023-03-25T18:06:02.603Z,10.95
2023-03-25T18:08:29.887Z,10.93
2023-03-25T18:10:56.980Z,10.87
2023-03-25T18:13:27.444Z,10.87
2023-03-25T18:15:54.837Z,10.84
2023-03-25T18:18:26.379Z,10.99
2023-03-25T18:20:56.129Z,11.04
2023-03-25T18:23:23.449Z,11.09
2023-03-25T18:25:50.302Z,11.01
2023-03-25T18:28:17.378Z,10.92
2023-03-25T18:30:51.894Z,11.06
2023-03-25T18:33:19.144Z,11.06
2023-03-25T18:35:46.855Z,11.12
2023-03-25T18:38:27.375Z,11.18
2023-03-25T18:40:55.503Z,10.99
2023-03-25T18:43:22.587Z,11.01
2023-03-25T18:45:49.652Z,10.99
2023-03-25T18:48:21.158Z,10.90
2023-03-25T18:50:56.437Z,10.98
2023-03-25T18:53:25.491Z,11.01
2023-03-25T18:55:54.726Z,10.90
2023-03-25T18:58:26.505Z,10.89
2023-03-25T19:00:54.208Z,10.66
2023-03-25T19:03:30.777Z,10.83
2023-03-25T19:05:58.494Z,10.97
2023-03-25T19:08:25.741Z,10.77
2023-03-25T19:10:57.412Z,10.69
2023-03-25T19:13:28.939Z,10.70
2023-03-25T19:15:55.770Z,10.65
2023-03-25T19:18:29.275Z,10.75
2023-03-25T19:20:55.972Z,10.72
2023-03-25T19:23:22.714Z,10.68
2023-03-25T19:25:50.949Z,10.68
2023-03-25T19:28:22.285Z,10.55
2023-03-25T19:30:50.905Z,10.46
2023-03-25T19:33:19.484Z,10.45
2023-03-25T19:35:55.031Z,10.40
2023-03-25T19:38:23.091Z,10.41
2023-03-25T19:40:51.817Z,10.43
2023-03-25T19:43:18.737Z,10.30
2023-03-25T19:45:45.498Z,9.80
2023-03-25T19:48:12.184Z,9.64
2023-03-25T19:50:40.969Z,9.54
2023-03-25T19:53:07.960Z,9.47
2023-03-25T19:55:34.764Z,9.48
2023-03-25T19:58:02.485Z,9.53
2023-03-25T20:00:30.681Z,9.61
2023-03-25T20:03:00.887Z,9.57
2023-03-25T20:05:30.498Z,9.53
2023-03-25T20:07:57.666Z,9.67
2023-03-25T20:10:28.044Z,9.61
2023-03-25T20:12:55.562Z,9.45
2023-03-25T20:15:23.811Z,9.43
2023-03-25T20:17:51.410Z,9.52
2023-03-25T20:20:19.479Z,9.50
2023-03-25T20:22:48.387Z,9.56
2023-03-25T20:25:16.359Z,9.53
2023-03-25T20:27:43.821Z,9.72
2023-03-25T20:30:13.547Z,9.59
2023-03-25T20:32:42.204Z,9.55
2023-03-25T20:35:12.676Z,9.36
2023-03-25T20:37:41.230Z,9.55
2023-03-25T20:40:11.374Z,9.44
2023-03-25T20:42:40.652Z,9.47
2023-03-25T20:45:08.501Z,9.58
2023-03-25T20:47:35.281Z,9.36
2023-03-25T20:50:02.156Z,9.35
2023-03-25T20:52:29.084Z,9.51
2023-03-25T20:54:56.963Z,9.41
2023-03-25T20:57:24.134Z,9.55
2023-03-25T20:59:53.007Z,9.47
2023-03-25T21:02:21.151Z,9.42
2023-03-25T21:04:48.090Z,9.49
2023-03-25T21:07:18.634Z,9.47
2023-03-25T21:09:49.493Z,9.34
2023-03-25T21:12:43.776Z,9.40
2023-03-25T21:15:12.381Z,9.54
2023-03-25T21:17:39.129Z,9.52
2023-03-25T21:20:07.727Z,9.64
2023-03-25T21:22:34.752Z,9.64
2023-03-25T21:25:01.515Z,9.57
2023-03-25T21:27:38.151Z,9.47
2023-03-25T21:30:09.799Z,9.58
2023-03-25T21:32:37.316Z,9.49
2023-03-25T21:35:04.107Z,9.54
2023-03-25T21:37:35.805Z,9.73
2023-03-25T21:40:02.956Z,9.64
2023-03-25T21:42:29.838Z,9.38
2023-03-25T21:44:56.509Z,9.41
2023-03-25T21:47:23.940Z,9.43
2023-03-25T21:49:50.805Z,9.40
2023-03-25T21:52:17.994Z,9.29
2023-03-25T21:54:44.725Z,9.18
2023-03-25T21:57:11.600Z,8.84
2023-03-25T21:59:38.402Z,9.02
2023-03-25T22:02:05.250Z,8.93
2023-03-25T22:04:33.840Z,9.11
2023-03-25T22:07:01.387Z,9.01
2023-03-25T22:09:28.104Z,8.97
2023-03-25T22:11:55.901Z,9.12
2023-03-25T22:14:22.904Z,8.93
2023-03-25T22:16:49.643Z,9.06
2023-03-25T22:19:16.402Z,9.02
2023-03-25T22:21:43.337Z,9.13
2023-03-25T22:24:10.033Z,9.00
2023-03-25T22:26:39.425Z,8.90
2023-03-25T22:29:07.646Z,9.09
2023-03-25T22:31:39.914Z,8.93
2023-03-25T22:34:12.624Z,8.86
2023-03-25T22:36:41.632Z,8.89
2023-03-25T22:39:08.385Z,8.88
2023-03-25T22:41:35.880Z,8.80
2023-03-25T22:44:02.599Z,8.64
2023-03-25T22:46:29.348Z,8.56
2023-03-25T22:48:56.105Z,8.54
2023-03-25T22:51:22.840Z,8.56
2023-03-25T22:53:49.540Z,8.76
2023-03-25T22:56:16.386Z,8.60
2023-03-25T22:58:43.178Z,8.57
2023-03-25T23:01:24.840Z,8.59
2023-03-25T23:03:53.840Z,8.63
2023-03-25T23:06:21.564Z,8.54
2023-03-25T23:08:48.997Z,8.41
2023-03-25T23:11:22.386Z,8.64
2023-03-25T23:13:52.999Z,8.68
2023-03-25T23:16:22.444Z,8.64
2023-03-25T23:18:49.627Z,8.51
2023-03-25T23:21:18.803Z,8.63
2023-03-25T23:23:52.325Z,8.51
2023-03-25T23:26:26.672Z,8.54
2023-03-25T23:28:56.552Z,8.56
2023-03-25T23:31:28.530Z,8.57
2023-03-25T23:33:58.349Z,8.54
2023-03-25T23:36:26.250Z,8.61
2023-03-25T23:38:53.865Z,8.56
2023-03-25T23:41:23.169Z,8.65
2023-03-25T23:43:51.065Z,8.71
2023-03-25T23:46:21.397Z,8.65
2023-03-25T23:48:48.386Z,8.65
2023-03-25T23:51:20.367Z,8.52
2023-03-25T23:53:48.365Z,8.40
2023-03-25T23:56:16.565Z,8.42
2023-03-25T23:58:43.781Z,8.25
